sensor_id;sensor_type;location;lat;lon;timestamp;P1;durP1;ratioP1;P2;durP2;ratioP2
1390;SDS011;690;51.454;7.194;2023-09-08T00:02:22;9.63;;;7.70;;
1390;SDS011;690;51.454;7.194;2023-09-08T00:04:49;9.30;;;7.57;;
1390;SDS011;690;51.454;7.194;2023-09-08T00:07:16;10.90;;;8.17;;
1390;SDS011;690;51.454;7.194;2023-09-08T00:09:43;8.53;;;7.03;;
1390;SDS011;690;51.454;7.194;2023-09-08T00:12:11;7.53;;;6.83;;
1390;SDS011;690;51.454;7.194;2023-09-08T00:14:38;9.03;;;7.43;;
1390;SDS011;690;51.454;7.194;2023-09-08T00:17:05;10.47;;;7.30;;
1390;SDS011;690;51.454;7.194;2023-09-08T00:19:32;7.63;;;6.93;;
1390;SDS011;690;51.454;7.194;2023-09-08T00:21:59;7.73;;;7.00;;
1390;SDS011;690;51.454;7.194;2023-09-08T00:24:27;9.13;;;7.57;;
1390;SDS011;690;51.454;7.194;2023-09-08T00:26:54;9.57;;;7.63;;
1390;SDS011;690;51.454;7.194;2023-09-08T00:29:22;9.40;;;8.10;;
1390;SDS011;690;51.454;7.194;2023-09-08T00:31:49;10.63;;;7.27;;
1390;SDS011;690;51.454;7.194;2023-09-08T00:34:16;8.37;;;7.10;;
1390;SDS011;690;51.454;7.194;2023-09-08T00:36:43;9.33;;;7.63;;
1390;SDS011;690;51.454;7.194;2023-09-08T00:39:10;8.47;;;7.67;;
1390;SDS011;690;51.454;7.194;2023-09-08T00:41:37;8.27;;;7.40;;
1390;SDS011;690;51.454;7.194;2023-09-08T00:44:04;8.47;;;7.67;;
1390;SDS011;690;51.454;7.194;2023-09-08T00:46:35;9.40;;;8.20;;
1390;SDS011;690;51.454;7.194;2023-09-08T00:49:02;9.93;;;7.70;;
1390;SDS011;690;51.454;7.194;2023-09-08T00:51:30;10.10;;;7.73;;
1390;SDS011;690;51.454;7.194;2023-09-08T00:53:57;8.60;;;7.20;;
1390;SDS011;690;51.454;7.194;2023-09-08T00:56:24;7.73;;;6.93;;
1390;SDS011;690;51.454;7.194;2023-09-08T00:58:51;8.40;;;7.57;;
1390;SDS011;690;51.454;7.194;2023-09-08T01:01:18;11.83;;;7.20;;
1390;SDS011;690;51.454;7.194;2023-09-08T01:03:46;9.53;;;8.53;;
1390;SDS011;690;51.454;7.194;2023-09-08T01:06:13;10.23;;;7.77;;
1390;SDS011;690;51.454;7.194;2023-09-08T01:08:41;8.30;;;7.50;;
1390;SDS011;690;51.454;7.194;2023-09-08T01:11:09;12.27;;;8.03;;
1390;SDS011;690;51.454;7.194;2023-09-08T01:13:36;11.37;;;8.13;;
1390;SDS011;690;51.454;7.194;2023-09-08T01:16:03;9.00;;;8.13;;
1390;SDS011;690;51.454;7.194;2023-09-08T01:18:30;8.80;;;8.00;;
1390;SDS011;690;51.454;7.194;2023-09-08T01:21:05;8.70;;;7.50;;
1390;SDS011;690;51.454;7.194;2023-09-08T01:24:00;11.00;;;8.03;;
1390;SDS011;690;51.454;7.194;2023-09-08T01:26:45;8.17;;;7.20;;
1390;SDS011;690;51.454;7.194;2023-09-08T01:29:12;8.10;;;7.30;;
1390;SDS011;690;51.454;7.194;2023-09-08T01:31:42;9.20;;;7.37;;
1390;SDS011;690;51.454;7.194;2023-09-08T01:34:09;10.47;;;7.77;;
1390;SDS011;690;51.454;7.194;2023-09-08T01:36:36;9.07;;;8.17;;
1390;SDS011;690;51.454;7.194;2023-09-08T01:39:05;12.40;;;7.80;;
1390;SDS011;690;51.454;7.194;2023-09-08T01:41:31;9.13;;;7.80;;
1390;SDS011;690;51.454;7.194;2023-09-08T01:44:00;12.43;;;8.37;;
1390;SDS011;690;51.454;7.194;2023-09-08T01:46:32;8.93;;;7.60;;
1390;SDS011;690;51.454;7.194;2023-09-08T01:48:59;9.67;;;8.07;;
1390;SDS011;690;51.454;7.194;2023-09-08T01:51:26;8.80;;;7.90;;
1390;SDS011;690;51.454;7.194;2023-09-08T01:53:53;10.53;;;8.23;;
1390;SDS011;690;51.454;7.194;2023-09-08T01:56:20;9.57;;;8.67;;
1390;SDS011;690;51.454;7.194;2023-09-08T01:58:48;9.40;;;8.60;;
1390;SDS011;690;51.454;7.194;2023-09-08T02:01:16;9.13;;;7.70;;
1390;SDS011;690;51.454;7.194;2023-09-08T02:03:43;9.80;;;8.80;;
1390;SDS011;690;51.454;7.194;2023-09-08T02:06:10;9.73;;;8.73;;
1390;SDS011;690;51.454;7.194;2023-09-08T02:08:36;11.30;;;8.47;;
1390;SDS011;690;51.454;7.194;2023-09-08T02:11:03;8.93;;;8.03;;
1390;SDS011;690;51.454;7.194;2023-09-08T02:13:30;13.03;;;8.03;;
1390;SDS011;690;51.454;7.194;2023-09-08T02:15:57;9.43;;;8.53;;
1390;SDS011;690;51.454;7.194;2023-09-08T02:18:26;15.17;;;9.33;;
1390;SDS011;690;51.454;7.194;2023-09-08T02:20:53;9.37;;;8.13;;
1390;SDS011;690;51.454;7.194;2023-09-08T02:23:20;8.67;;;7.77;;
1390;SDS011;690;51.454;7.194;2023-09-08T02:25:47;9.97;;;9.07;;
1390;SDS011;690;51.454;7.194;2023-09-08T02:28:14;9.60;;;8.60;;
1390;SDS011;690;51.454;7.194;2023-09-08T02:30:41;11.00;;;8.40;;
1390;SDS011;690;51.454;7.194;2023-09-08T02:33:07;9.80;;;8.80;;
1390;SDS011;690;51.454;7.194;2023-09-08T02:35:36;9.90;;;8.20;;
1390;SDS011;690;51.454;7.194;2023-09-08T02:38:04;10.00;;;9.10;;
1390;SDS011;690;51.454;7.194;2023-09-08T02:40:31;9.00;;;8.30;;
1390;SDS011;690;51.454;7.194;2023-09-08T02:42:59;12.00;;;9.50;;
1390;SDS011;690;51.454;7.194;2023-09-08T02:45:26;11.67;;;8.23;;
1390;SDS011;690;51.454;7.194;2023-09-08T02:47:53;9.37;;;8.57;;
1390;SDS011;690;51.454;7.194;2023-09-08T02:50:20;9.93;;;8.73;;
1390;SDS011;690;51.454;7.194;2023-09-08T02:52:49;8.90;;;8.00;;
1390;SDS011;690;51.454;7.194;2023-09-08T02:55:16;9.87;;;8.87;;
1390;SDS011;690;51.454;7.194;2023-09-08T02:57:43;8.80;;;7.90;;
1390;SDS011;690;51.454;7.194;2023-09-08T03:00:10;9.40;;;8.50;;
1390;SDS011;690;51.454;7.194;2023-09-08T03:02:38;8.97;;;7.93;;
1390;SDS011;690;51.454;7.194;2023-09-08T03:05:05;10.10;;;9.10;;
1390;SDS011;690;51.454;7.194;2023-09-08T03:07:32;12.17;;;8.67;;
1390;SDS011;690;51.454;7.194;2023-09-08T03:10:04;9.70;;;8.07;;
1390;SDS011;690;51.454;7.194;2023-09-08T03:12:32;11.27;;;10.13;;
1390;SDS011;690;51.454;7.194;2023-09-08T03:15:00;12.27;;;9.93;;
1390;SDS011;690;51.454;7.194;2023-09-08T03:17:27;10.70;;;9.20;;
1390;SDS011;690;51.454;7.194;2023-09-08T03:19:54;10.03;;;8.57;;
1390;SDS011;690;51.454;7.194;2023-09-08T03:22:21;11.10;;;9.00;;
1390;SDS011;690;51.454;7.194;2023-09-08T03:24:49;10.40;;;9.30;;
1390;SDS011;690;51.454;7.194;2023-09-08T03:27:18;10.20;;;9.10;;
1390;SDS011;690;51.454;7.194;2023-09-08T03:29:46;10.87;;;9.77;;
1390;SDS011;690;51.454;7.194;2023-09-08T03:32:13;9.80;;;8.30;;
1390;SDS011;690;51.454;7.194;2023-09-08T03:34:39;10.03;;;9.13;;
1390;SDS011;690;51.454;7.194;2023-09-08T03:37:06;10.50;;;9.27;;
1390;SDS011;690;51.454;7.194;2023-09-08T03:39:33;10.60;;;9.60;;
1390;SDS011;690;51.454;7.194;2023-09-08T03:42:00;14.17;;;10.27;;
1390;SDS011;690;51.454;7.194;2023-09-08T03:44:29;10.37;;;9.33;;
1390;SDS011;690;51.454;7.194;2023-09-08T03:46:56;10.73;;;9.70;;
1390;SDS011;690;51.454;7.194;2023-09-08T03:49:23;12.87;;;9.70;;
1390;SDS011;690;51.454;7.194;2023-09-08T03:51:50;10.90;;;9.60;;
1390;SDS011;690;51.454;7.194;2023-09-08T03:54:17;11.43;;;9.97;;
1390;SDS011;690;51.454;7.194;2023-09-08T03:56:44;11.20;;;10.10;;
1390;SDS011;690;51.454;7.194;2023-09-08T03:59:11;10.07;;;9.07;;
1390;SDS011;690;51.454;7.194;2023-09-08T04:01:39;12.30;;;11.03;;
1390;SDS011;690;51.454;7.194;2023-09-08T04:04:06;10.90;;;9.60;;
1390;SDS011;690;51.454;7.194;2023-09-08T04:06:33;12.20;;;10.47;;
1390;SDS011;690;51.454;7.194;2023-09-08T04:09:00;11.37;;;10.17;;
1390;SDS011;690;51.454;7.194;2023-09-08T04:11:27;11.50;;;10.50;;
1390;SDS011;690;51.454;7.194;2023-09-08T04:13:54;13.97;;;11.10;;
1390;SDS011;690;51.454;7.194;2023-09-08T04:16:21;10.80;;;9.80;;
1390;SDS011;690;51.454;7.194;2023-09-08T04:18:50;10.83;;;9.73;;
1390;SDS011;690;51.454;7.194;2023-09-08T04:21:17;14.97;;;10.67;;
1390;SDS011;690;51.454;7.194;2023-09-08T04:23:44;11.33;;;10.23;;
1390;SDS011;690;51.454;7.194;2023-09-08T04:26:11;9.43;;;8.53;;
1390;SDS011;690;51.454;7.194;2023-09-08T04:28:38;10.60;;;9.60;;
1390;SDS011;690;51.454;7.194;2023-09-08T04:31:05;12.63;;;9.47;;
1390;SDS011;690;51.454;7.194;2023-09-08T04:33:32;15.90;;;9.17;;
1390;SDS011;690;51.454;7.194;2023-09-08T04:36:01;10.90;;;8.70;;
1390;SDS011;690;51.454;7.194;2023-09-08T04:38:28;10.10;;;9.10;;
1390;SDS011;690;51.454;7.194;2023-09-08T04:40:55;9.50;;;8.60;;
1390;SDS011;690;51.454;7.194;2023-09-08T04:43:22;10.40;;;8.47;;
1390;SDS011;690;51.454;7.194;2023-09-08T04:45:49;11.10;;;8.83;;
1390;SDS011;690;51.454;7.194;2023-09-08T04:48:17;9.33;;;8.33;;
1390;SDS011;690;51.454;7.194;2023-09-08T04:50:44;11.03;;;8.80;;
1390;SDS011;690;51.454;7.194;2023-09-08T04:53:12;10.63;;;8.50;;
1390;SDS011;690;51.454;7.194;2023-09-08T04:55:39;9.83;;;8.30;;
1390;SDS011;690;51.454;7.194;2023-09-08T04:58:06;8.57;;;7.77;;
1390;SDS011;690;51.454;7.194;2023-09-08T05:00:33;9.73;;;8.07;;
1390;SDS011;690;51.454;7.194;2023-09-08T05:03:00;9.50;;;8.63;;
1390;SDS011;690;51.454;7.194;2023-09-08T05:05:27;11.33;;;8.33;;
1390;SDS011;690;51.454;7.194;2023-09-08T05:07:53;11.60;;;8.83;;
1390;SDS011;690;51.454;7.194;2023-09-08T05:10:22;10.13;;;7.97;;
1390;SDS011;690;51.454;7.194;2023-09-08T05:12:50;8.60;;;7.80;;
1390;SDS011;690;51.454;7.194;2023-09-08T05:15:17;9.33;;;8.47;;
1390;SDS011;690;51.454;7.194;2023-09-08T05:17:46;9.90;;;8.87;;
1390;SDS011;690;51.454;7.194;2023-09-08T05:20:13;9.47;;;7.67;;
1390;SDS011;690;51.454;7.194;2023-09-08T05:22:40;9.03;;;8.13;;
1390;SDS011;690;51.454;7.194;2023-09-08T05:25:07;9.03;;;7.77;;
1390;SDS011;690;51.454;7.194;2023-09-08T05:27:35;10.47;;;8.60;;
1390;SDS011;690;51.454;7.194;2023-09-08T05:30:03;8.27;;;7.47;;
1390;SDS011;690;51.454;7.194;2023-09-08T05:32:31;9.20;;;8.37;;
1390;SDS011;690;51.454;7.194;2023-09-08T05:34:59;10.77;;;7.63;;
1390;SDS011;690;51.454;7.194;2023-09-08T05:37:25;8.30;;;7.50;;
1390;SDS011;690;51.454;7.194;2023-09-08T05:39:52;9.80;;;7.23;;
1390;SDS011;690;51.454;7.194;2023-09-08T05:42:20;8.20;;;7.40;;
1390;SDS011;690;51.454;7.194;2023-09-08T05:44:48;10.73;;;8.30;;
1390;SDS011;690;51.454;7.194;2023-09-08T05:47:15;8.43;;;7.37;;
1390;SDS011;690;51.454;7.194;2023-09-08T05:49:42;9.40;;;8.20;;
1390;SDS011;690;51.454;7.194;2023-09-08T05:52:09;10.47;;;7.80;;
1390;SDS011;690;51.454;7.194;2023-09-08T05:54:36;8.63;;;7.70;;
1390;SDS011;690;51.454;7.194;2023-09-08T05:57:03;9.23;;;8.10;;
1390;SDS011;690;51.454;7.194;2023-09-08T05:59:30;8.97;;;7.57;;
1390;SDS011;690;51.454;7.194;2023-09-08T06:01:58;9.30;;;7.93;;
1390;SDS011;690;51.454;7.194;2023-09-08T06:04:25;11.27;;;7.23;;
1390;SDS011;690;51.454;7.194;2023-09-08T06:06:52;8.60;;;7.70;;
1390;SDS011;690;51.454;7.194;2023-09-08T06:09:19;8.67;;;7.80;;
1390;SDS011;690;51.454;7.194;2023-09-08T06:11:45;8.67;;;7.27;;
1390;SDS011;690;51.454;7.194;2023-09-08T06:14:17;13.50;;;7.70;;
1390;SDS011;690;51.454;7.194;2023-09-08T06:16:44;8.27;;;7.37;;
1390;SDS011;690;51.454;7.194;2023-09-08T06:19:13;7.17;;;6.47;;
1390;SDS011;690;51.454;7.194;2023-09-08T06:21:39;8.73;;;6.87;;
1390;SDS011;690;51.454;7.194;2023-09-08T06:24:07;8.43;;;7.10;;
1390;SDS011;690;51.454;7.194;2023-09-08T06:26:34;8.47;;;7.50;;
1390;SDS011;690;51.454;7.194;2023-09-08T06:29:01;7.67;;;6.90;;
1390;SDS011;690;51.454;7.194;2023-09-08T06:31:28;8.47;;;7.07;;
1390;SDS011;690;51.454;7.194;2023-09-08T06:33:55;8.47;;;6.47;;
1390;SDS011;690;51.454;7.194;2023-09-08T06:36:24;10.90;;;8.00;;
1390;SDS011;690;51.454;7.194;2023-09-08T06:38:50;12.90;;;8.33;;
1390;SDS011;690;51.454;7.194;2023-09-08T06:41:17;9.27;;;8.27;;
1390;SDS011;690;51.454;7.194;2023-09-08T06:43:44;11.67;;;7.87;;
1390;SDS011;690;51.454;7.194;2023-09-08T06:46:11;11.73;;;7.63;;
1390;SDS011;690;51.454;7.194;2023-09-08T06:48:38;14.40;;;7.77;;
1390;SDS011;690;51.454;7.194;2023-09-08T06:51:05;11.80;;;7.57;;
1390;SDS011;690;51.454;7.194;2023-09-08T06:53:33;13.50;;;8.07;;
1390;SDS011;690;51.454;7.194;2023-09-08T06:56:00;10.40;;;6.90;;
1390;SDS011;690;51.454;7.194;2023-09-08T06:58:27;14.03;;;7.93;;
1390;SDS011;690;51.454;7.194;2023-09-08T07:00:54;7.73;;;6.93;;
1390;SDS011;690;51.454;7.194;2023-09-08T07:03:21;8.67;;;7.60;;
1390;SDS011;690;51.454;7.194;2023-09-08T07:05:49;11.33;;;6.10;;
1390;SDS011;690;51.454;7.194;2023-09-08T07:08:16;16.40;;;8.30;;
1390;SDS011;690;51.454;7.194;2023-09-08T07:10:45;17.00;;;8.53;;
1390;SDS011;690;51.454;7.194;2023-09-08T07:13:17;8.13;;;6.90;;
1390;SDS011;690;51.454;7.194;2023-09-08T07:15:44;9.50;;;7.60;;
1390;SDS011;690;51.454;7.194;2023-09-08T07:18:11;17.20;;;9.60;;
1390;SDS011;690;51.454;7.194;2023-09-08T07:20:38;7.93;;;6.30;;
1390;SDS011;690;51.454;7.194;2023-09-08T07:23:05;7.80;;;7.00;;
1390;SDS011;690;51.454;7.194;2023-09-08T07:25:32;10.50;;;7.20;;
1390;SDS011;690;51.454;7.194;2023-09-08T07:28:03;9.40;;;7.07;;
1390;SDS011;690;51.454;7.194;2023-09-08T07:30:31;9.53;;;6.87;;
1390;SDS011;690;51.454;7.194;2023-09-08T07:32:58;10.50;;;6.83;;
1390;SDS011;690;51.454;7.194;2023-09-08T07:35:25;10.40;;;7.17;;
1390;SDS011;690;51.454;7.194;2023-09-08T07:37:52;6.90;;;6.07;;
1390;SDS011;690;51.454;7.194;2023-09-08T07:40:19;9.60;;;6.83;;
1390;SDS011;690;51.454;7.194;2023-09-08T07:42:46;7.33;;;6.63;;
1390;SDS011;690;51.454;7.194;2023-09-08T07:45:15;8.97;;;6.43;;
1390;SDS011;690;51.454;7.194;2023-09-08T07:47:42;8.43;;;6.93;;
1390;SDS011;690;51.454;7.194;2023-09-08T07:50:16;10.73;;;7.70;;
1390;SDS011;690;51.454;7.194;2023-09-08T07:52:45;8.60;;;7.00;;
1390;SDS011;690;51.454;7.194;2023-09-08T07:55:12;7.50;;;6.33;;
1390;SDS011;690;51.454;7.194;2023-09-08T07:57:40;8.67;;;7.77;;
1390;SDS011;690;51.454;7.194;2023-09-08T08:00:08;9.73;;;7.50;;
1390;SDS011;690;51.454;7.194;2023-09-08T08:02:39;10.60;;;7.03;;
1390;SDS011;690;51.454;7.194;2023-09-08T08:05:08;9.07;;;7.47;;
1390;SDS011;690;51.454;7.194;2023-09-08T08:07:35;8.20;;;6.20;;
1390;SDS011;690;51.454;7.194;2023-09-08T08:10:02;11.50;;;7.17;;
1390;SDS011;690;51.454;7.194;2023-09-08T08:12:30;8.20;;;6.60;;
1390;SDS011;690;51.454;7.194;2023-09-08T08:14:57;9.57;;;8.00;;
1390;SDS011;690;51.454;7.194;2023-09-08T08:17:24;9.20;;;6.37;;
1390;SDS011;690;51.454;7.194;2023-09-08T08:19:54;7.80;;;6.83;;
1390;SDS011;690;51.454;7.194;2023-09-08T08:22:23;6.50;;;5.87;;
1390;SDS011;690;51.454;7.194;2023-09-08T08:24:50;8.00;;;6.03;;
1390;SDS011;690;51.454;7.194;2023-09-08T08:27:17;8.23;;;6.90;;
1390;SDS011;690;51.454;7.194;2023-09-08T08:29:44;7.47;;;6.77;;
1390;SDS011;690;51.454;7.194;2023-09-08T08:32:11;7.67;;;6.50;;
1390;SDS011;690;51.454;7.194;2023-09-08T08:34:39;6.67;;;6.03;;
1390;SDS011;690;51.454;7.194;2023-09-08T08:37:07;7.13;;;6.43;;
1390;SDS011;690;51.454;7.194;2023-09-08T08:39:34;7.03;;;6.33;;
1390;SDS011;690;51.454;7.194;2023-09-08T08:42:06;7.00;;;6.27;;
1390;SDS011;690;51.454;7.194;2023-09-08T08:44:33;7.77;;;6.53;;
1390;SDS011;690;51.454;7.194;2023-09-08T08:47:01;7.60;;;6.17;;
1390;SDS011;690;51.454;7.194;2023-09-08T08:49:29;9.63;;;6.63;;
1390;SDS011;690;51.454;7.194;2023-09-08T08:51:58;6.80;;;6.20;;
1390;SDS011;690;51.454;7.194;2023-09-08T08:54:30;7.27;;;6.53;;
1390;SDS011;690;51.454;7.194;2023-09-08T08:56:57;6.80;;;6.20;;
1390;SDS011;690;51.454;7.194;2023-09-08T08:59:26;7.13;;;5.90;;
1390;SDS011;690;51.454;7.194;2023-09-08T09:01:53;9.27;;;6.33;;
1390;SDS011;690;51.454;7.194;2023-09-08T09:04:21;7.20;;;6.50;;
1390;SDS011;690;51.454;7.194;2023-09-08T09:06:48;6.90;;;6.20;;
1390;SDS011;690;51.454;7.194;2023-09-08T09:09:16;10.43;;;7.30;;
1390;SDS011;690;51.454;7.194;2023-09-08T09:11:44;7.10;;;6.40;;
1390;SDS011;690;51.454;7.194;2023-09-08T09:14:11;8.03;;;7.20;;
1390;SDS011;690;51.454;7.194;2023-09-08T09:16:39;7.57;;;6.37;;
1390;SDS011;690;51.454;7.194;2023-09-08T09:19:06;9.83;;;6.83;;
1390;SDS011;690;51.454;7.194;2023-09-08T09:21:41;7.87;;;7.20;;
1390;SDS011;690;51.454;7.194;2023-09-08T09:24:13;6.70;;;6.10;;
1390;SDS011;690;51.454;7.194;2023-09-08T09:26:40;6.50;;;5.90;;
1390;SDS011;690;51.454;7.194;2023-09-08T09:29:12;7.80;;;6.40;;
1390;SDS011;690;51.454;7.194;2023-09-08T09:31:49;5.73;;;5.23;;
1390;SDS011;690;51.454;7.194;2023-09-08T09:34:18;7.50;;;6.80;;
1390;SDS011;690;51.454;7.194;2023-09-08T09:36:47;7.10;;;6.40;;
1390;SDS011;690;51.454;7.194;2023-09-08T09:39:16;10.40;;;6.87;;
1390;SDS011;690;51.454;7.194;2023-09-08T09:41:44;6.37;;;5.80;;
1390;SDS011;690;51.454;7.194;2023-09-08T09:44:13;7.10;;;6.50;;
1390;SDS011;690;51.454;7.194;2023-09-08T09:46:43;6.90;;;6.07;;
1390;SDS011;690;51.454;7.194;2023-09-08T09:49:10;7.73;;;6.90;;
1390;SDS011;690;51.454;7.194;2023-09-08T09:51:42;7.10;;;6.50;;
1390;SDS011;690;51.454;7.194;2023-09-08T09:54:10;8.63;;;6.87;;
1390;SDS011;690;51.454;7.194;2023-09-08T09:56:38;7.40;;;6.40;;
1390;SDS011;690;51.454;7.194;2023-09-08T09:59:07;7.63;;;5.90;;
1390;SDS011;690;51.454;7.194;2023-09-08T10:01:36;6.50;;;5.90;;
1390;SDS011;690;51.454;7.194;2023-09-08T10:04:04;6.83;;;6.10;;
1390;SDS011;690;51.454;7.194;2023-09-08T10:06:32;9.00;;;8.23;;
1390;SDS011;690;51.454;7.194;2023-09-08T10:09:00;8.10;;;6.10;;
1390;SDS011;690;51.454;7.194;2023-09-08T10:11:33;5.97;;;5.40;;
1390;SDS011;690;51.454;7.194;2023-09-08T10:14:05;7.37;;;5.93;;
1390;SDS011;690;51.454;7.194;2023-09-08T10:16:38;7.60;;;5.67;;
1390;SDS011;690;51.454;7.194;2023-09-08T10:19:07;5.83;;;5.33;;
1390;SDS011;690;51.454;7.194;2023-09-08T10:21:36;6.50;;;5.50;;
1390;SDS011;690;51.454;7.194;2023-09-08T10:24:08;5.67;;;4.90;;
1390;SDS011;690;51.454;7.194;2023-09-08T10:26:43;5.73;;;5.20;;
1390;SDS011;690;51.454;7.194;2023-09-08T10:29:13;6.50;;;5.90;;
1390;SDS011;690;51.454;7.194;2023-09-08T10:31:42;6.20;;;5.43;;
1390;SDS011;690;51.454;7.194;2023-09-08T10:34:11;6.90;;;6.20;;
1390;SDS011;690;51.454;7.194;2023-09-08T10:36:38;5.90;;;5.40;;
1390;SDS011;690;51.454;7.194;2023-09-08T10:44:55;6.23;;;5.63;;
1390;SDS011;690;51.454;7.194;2023-09-08T10:47:34;8.73;;;5.70;;
1390;SDS011;690;51.454;7.194;2023-09-08T10:50:25;7.33;;;6.20;;
1390;SDS011;690;51.454;7.194;2023-09-08T10:53:03;6.53;;;5.93;;
1390;SDS011;690;51.454;7.194;2023-09-08T10:55:35;6.33;;;5.70;;
1390;SDS011;690;51.454;7.194;2023-09-08T10:58:03;7.10;;;6.50;;
1390;SDS011;690;51.454;7.194;2023-09-08T11:00:42;5.70;;;5.20;;
1390;SDS011;690;51.454;7.194;2023-09-08T11:03:12;9.80;;;6.23;;
1390;SDS011;690;51.454;7.194;2023-09-08T11:05:41;6.80;;;5.60;;
1390;SDS011;690;51.454;7.194;2023-09-08T11:08:09;6.67;;;5.63;;
1390;SDS011;690;51.454;7.194;2023-09-08T11:10:36;7.00;;;6.30;;
1390;SDS011;690;51.454;7.194;2023-09-08T11:13:05;6.27;;;5.67;;
1390;SDS011;690;51.454;7.194;2023-09-08T11:15:32;6.53;;;5.93;;
1390;SDS011;690;51.454;7.194;2023-09-08T11:18:04;6.20;;;5.70;;
1390;SDS011;690;51.454;7.194;2023-09-08T11:20:33;6.33;;;5.73;;
1390;SDS011;690;51.454;7.194;2023-09-08T11:23:00;6.97;;;5.67;;
1390;SDS011;690;51.454;7.194;2023-09-08T11:25:28;6.73;;;6.07;;
1390;SDS011;690;51.454;7.194;2023-09-08T11:27:55;6.43;;;5.83;;
1390;SDS011;690;51.454;7.194;2023-09-08T11:30:24;9.67;;;6.10;;
1390;SDS011;690;51.454;7.194;2023-09-08T11:32:52;6.83;;;5.90;;
1390;SDS011;690;51.454;7.194;2023-09-08T11:35:19;7.20;;;6.23;;
1390;SDS011;690;51.454;7.194;2023-09-08T11:37:48;7.57;;;6.00;;
1390;SDS011;690;51.454;7.194;2023-09-08T11:40:16;6.67;;;6.13;;
1390;SDS011;690;51.454;7.194;2023-09-08T11:42:45;8.00;;;6.10;;
1390;SDS011;690;51.454;7.194;2023-09-08T11:45:13;7.50;;;6.20;;
1390;SDS011;690;51.454;7.194;2023-09-08T11:47:43;7.00;;;6.30;;
1390;SDS011;690;51.454;7.194;2023-09-08T11:50:10;6.50;;;6.00;;
1390;SDS011;690;51.454;7.194;2023-09-08T11:52:40;6.20;;;5.63;;
1390;SDS011;690;51.454;7.194;2023-09-08T11:55:10;8.53;;;5.80;;
1390;SDS011;690;51.454;7.194;2023-09-08T11:57:38;8.40;;;5.70;;
1390;SDS011;690;51.454;7.194;2023-09-08T12:00:06;7.10;;;6.40;;
1390;SDS011;690;51.454;7.194;2023-09-08T12:02:36;9.50;;;5.97;;
1390;SDS011;690;51.454;7.194;2023-09-08T12:05:03;6.90;;;6.30;;
1390;SDS011;690;51.454;7.194;2023-09-08T12:07:31;6.07;;;5.57;;
1390;SDS011;690;51.454;7.194;2023-09-08T12:09:58;6.20;;;5.53;;
1390;SDS011;690;51.454;7.194;2023-09-08T12:12:26;6.50;;;5.90;;
1390;SDS011;690;51.454;7.194;2023-09-08T12:14:54;6.20;;;5.70;;
1390;SDS011;690;51.454;7.194;2023-09-08T12:17:21;7.30;;;6.70;;
1390;SDS011;690;51.454;7.194;2023-09-08T12:19:50;7.53;;;6.30;;
1390;SDS011;690;51.454;7.194;2023-09-08T12:22:18;6.63;;;6.03;;
1390;SDS011;690;51.454;7.194;2023-09-08T12:24:48;6.27;;;5.67;;
1390;SDS011;690;51.454;7.194;2023-09-08T12:27:16;6.87;;;6.17;;
1390;SDS011;690;51.454;7.194;2023-09-08T12:29:55;8.13;;;6.03;;
1390;SDS011;690;51.454;7.194;2023-09-08T12:32:22;6.30;;;5.80;;
1390;SDS011;690;51.454;7.194;2023-09-08T12:34:50;8.10;;;6.23;;
1390;SDS011;690;51.454;7.194;2023-09-08T12:37:21;6.67;;;6.07;;
1390;SDS011;690;51.454;7.194;2023-09-08T12:39:48;7.20;;;6.33;;
1390;SDS011;690;51.454;7.194;2023-09-08T12:42:15;6.57;;;6.07;;
1390;SDS011;690;51.454;7.194;2023-09-08T12:44:44;6.33;;;5.70;;
1390;SDS011;690;51.454;7.194;2023-09-08T12:47:13;6.90;;;6.30;;
1390;SDS011;690;51.454;7.194;2023-09-08T12:49:40;8.53;;;7.13;;
1390;SDS011;690;51.454;7.194;2023-09-08T12:52:06;7.77;;;6.03;;
1390;SDS011;690;51.454;7.194;2023-09-08T12:54:34;7.57;;;5.90;;
1390;SDS011;690;51.454;7.194;2023-09-08T12:57:01;7.07;;;6.23;;
1390;SDS011;690;51.454;7.194;2023-09-08T12:59:28;6.53;;;6.03;;
1390;SDS011;690;51.454;7.194;2023-09-08T13:01:55;6.20;;;5.70;;
1390;SDS011;690;51.454;7.194;2023-09-08T13:04:24;10.27;;;5.60;;
1390;SDS011;690;51.454;7.194;2023-09-08T13:06:51;6.13;;;5.40;;
1390;SDS011;690;51.454;7.194;2023-09-08T13:09:18;6.93;;;6.30;;
1390;SDS011;690;51.454;7.194;2023-09-08T13:11:46;6.57;;;6.00;;
1390;SDS011;690;51.454;7.194;2023-09-08T13:14:13;7.43;;;6.73;;
1390;SDS011;690;51.454;7.194;2023-09-08T13:16:40;6.10;;;5.60;;
1390;SDS011;690;51.454;7.194;2023-09-08T13:19:07;6.47;;;5.90;;
1390;SDS011;690;51.454;7.194;2023-09-08T13:21:35;6.70;;;6.10;;
1390;SDS011;690;51.454;7.194;2023-09-08T13:24:05;6.67;;;6.10;;
1390;SDS011;690;51.454;7.194;2023-09-08T13:26:33;5.73;;;5.00;;
1390;SDS011;690;51.454;7.194;2023-09-08T13:29:00;5.30;;;4.90;;
1390;SDS011;690;51.454;7.194;2023-09-08T13:31:27;7.40;;;5.80;;
1390;SDS011;690;51.454;7.194;2023-09-08T13:33:54;6.00;;;5.40;;
1390;SDS011;690;51.454;7.194;2023-09-08T13:36:21;6.13;;;5.20;;
1390;SDS011;690;51.454;7.194;2023-09-08T13:38:49;6.83;;;6.27;;
1390;SDS011;690;51.454;7.194;2023-09-08T13:41:16;6.40;;;5.90;;
1390;SDS011;690;51.454;7.194;2023-09-08T13:43:43;6.27;;;5.77;;
1390;SDS011;690;51.454;7.194;2023-09-08T13:46:09;8.93;;;6.83;;
1390;SDS011;690;51.454;7.194;2023-09-08T13:48:38;6.60;;;6.00;;
1390;SDS011;690;51.454;7.194;2023-09-08T13:51:05;6.37;;;5.87;;
1390;SDS011;690;51.454;7.194;2023-09-08T13:53:32;6.30;;;5.77;;
1390;SDS011;690;51.454;7.194;2023-09-08T13:56:01;6.20;;;5.70;;
1390;SDS011;690;51.454;7.194;2023-09-08T13:58:31;6.40;;;5.80;;
1390;SDS011;690;51.454;7.194;2023-09-08T14:00:58;6.60;;;6.00;;
1390;SDS011;690;51.454;7.194;2023-09-08T14:03:25;6.40;;;5.63;;
1390;SDS011;690;51.454;7.194;2023-09-08T14:05:52;6.37;;;5.87;;
1390;SDS011;690;51.454;7.194;2023-09-08T14:08:19;5.70;;;5.20;;
1390;SDS011;690;51.454;7.194;2023-09-08T14:10:46;7.27;;;6.57;;
1390;SDS011;690;51.454;7.194;2023-09-08T14:13:14;5.77;;;5.30;;
1390;SDS011;690;51.454;7.194;2023-09-08T14:15:41;6.30;;;5.70;;
1390;SDS011;690;51.454;7.194;2023-09-08T14:18:09;6.20;;;5.70;;
1390;SDS011;690;51.454;7.194;2023-09-08T14:20:36;6.97;;;6.37;;
1390;SDS011;690;51.454;7.194;2023-09-08T14:23:03;6.93;;;6.33;;
1390;SDS011;690;51.454;7.194;2023-09-08T14:25:32;8.03;;;7.33;;
1390;SDS011;690;51.454;7.194;2023-09-08T14:27:59;7.87;;;7.17;;
1390;SDS011;690;51.454;7.194;2023-09-08T14:30:29;7.30;;;6.60;;
1390;SDS011;690;51.454;7.194;2023-09-08T14:32:56;7.00;;;6.40;;
1390;SDS011;690;51.454;7.194;2023-09-08T14:35:23;6.60;;;6.10;;
1390;SDS011;690;51.454;7.194;2023-09-08T14:37:51;6.83;;;6.20;;
1390;SDS011;690;51.454;7.194;2023-09-08T14:40:21;5.93;;;5.47;;
1390;SDS011;690;51.454;7.194;2023-09-08T14:42:49;6.70;;;5.57;;
1390;SDS011;690;51.454;7.194;2023-09-08T14:45:16;5.90;;;5.50;;
1390;SDS011;690;51.454;7.194;2023-09-08T14:47:44;6.53;;;5.93;;
1390;SDS011;690;51.454;7.194;2023-09-08T14:50:11;6.20;;;5.60;;
1390;SDS011;690;51.454;7.194;2023-09-08T14:52:39;6.10;;;5.50;;
1390;SDS011;690;51.454;7.194;2023-09-08T14:55:06;5.83;;;5.43;;
1390;SDS011;690;51.454;7.194;2023-09-08T14:57:34;7.70;;;7.10;;
1390;SDS011;690;51.454;7.194;2023-09-08T15:00:01;7.57;;;6.87;;
1390;SDS011;690;51.454;7.194;2023-09-08T15:02:29;7.03;;;6.37;;
1390;SDS011;690;51.454;7.194;2023-09-08T15:04:58;7.23;;;6.63;;
1390;SDS011;690;51.454;7.194;2023-09-08T15:07:25;6.47;;;5.90;;
1390;SDS011;690;51.454;7.194;2023-09-08T15:09:54;5.97;;;5.47;;
1390;SDS011;690;51.454;7.194;2023-09-08T15:12:21;6.03;;;5.53;;
1390;SDS011;690;51.454;7.194;2023-09-08T15:14:48;6.30;;;5.70;;
1390;SDS011;690;51.454;7.194;2023-09-08T15:17:14;6.93;;;6.23;;
1390;SDS011;690;51.454;7.194;2023-09-08T15:19:44;6.90;;;6.17;;
1390;SDS011;690;51.454;7.194;2023-09-08T15:22:12;6.53;;;5.93;;
1390;SDS011;690;51.454;7.194;2023-09-08T15:24:39;7.33;;;6.63;;
1390;SDS011;690;51.454;7.194;2023-09-08T15:27:06;6.70;;;6.07;;
1390;SDS011;690;51.454;7.194;2023-09-08T15:29:33;6.70;;;6.10;;
1390;SDS011;690;51.454;7.194;2023-09-08T15:32:00;6.03;;;5.57;;
1390;SDS011;690;51.454;7.194;2023-09-08T15:34:28;6.43;;;5.80;;
1390;SDS011;690;51.454;7.194;2023-09-08T15:36:55;6.63;;;6.00;;
1390;SDS011;690;51.454;7.194;2023-09-08T15:39:23;6.63;;;6.13;;